createdAt,value
2023-02-19T00:01:47.955Z,7.89
2023-02-19T00:04:21.822Z,7.91
2023-02-19T00:06:49.918Z,7.84
2023-02-19T00:09:18.588Z,7.71
2023-02-19T00:11:47.792Z,7.61
2023-02-19T00:14:19.776Z,7.59
2023-02-19T00:16:47.828Z,7.60
2023-02-19T00:19:18.348Z,7.62
2023-02-19T00:21:46.614Z,7.62
2023-02-19T00:24:14.817Z,7.61
2023-02-19T00:26:43.338Z,7.60
2023-02-19T00:29:16.494Z,7.65
2023-02-19T00:31:45.131Z,7.63
2023-02-19T00:34:13.529Z,7.64
2023-02-19T00:36:42.439Z,7.71
2023-02-19T00:39:14.021Z,7.65
2023-02-19T00:41:41.699Z,7.57
2023-02-19T00:44:11.105Z,7.47
2023-02-19T00:46:41.601Z,7.39
2023-02-19T00:49:15.207Z,7.36
2023-02-19T00:51:43.093Z,7.24
2023-02-19T00:54:11.734Z,7.17
2023-02-19T00:56:39.425Z,7.21
2023-02-19T00:59:07.169Z,7.23
2023-02-19T01:01:34.978Z,7.16
2023-02-19T01:04:04.825Z,7.17
2023-02-19T01:06:34.728Z,7.23
2023-02-19T01:09:04.506Z,7.18
2023-02-19T01:11:32.187Z,7.14
2023-02-19T01:14:01.318Z,7.15
2023-02-19T01:16:29.139Z,7.11
2023-02-19T01:18:57.777Z,7.11
2023-02-19T01:21:26.925Z,7.08
2023-02-19T01:23:55.216Z,7.04
2023-02-19T01:26:26.187Z,6.96
2023-02-19T01:28:54.003Z,6.94
2023-02-19T01:31:24.094Z,6.94
2023-02-19T01:33:55.128Z,6.90
2023-02-19T01:36:23.156Z,6.78
2023-02-19T01:38:50.870Z,6.78
2023-02-19T01:41:22.238Z,6.75
2023-02-19T01:43:57.290Z,6.70
2023-02-19T01:46:29.722Z,6.67
2023-02-19T01:48:59.588Z,6.68
2023-02-19T01:51:28.247Z,6.66
2023-02-19T01:53:57.812Z,6.73
2023-02-19T01:56:27.212Z,6.73
2023-02-19T01:58:55.364Z,6.77
2023-02-19T02:01:23.078Z,6.83
2023-02-19T02:03:52.135Z,6.95
2023-02-19T02:06:25.390Z,7.00
2023-02-19T02:09:13.846Z,6.99
2023-02-19T02:11:48.682Z,7.02
2023-02-19T02:14:22.939Z,7.09
2023-02-19T02:17:09.871Z,7.17
2023-02-19T02:19:55.829Z,7.24
2023-02-19T02:22:35.309Z,7.29
2023-02-19T02:25:22.160Z,7.28
2023-02-19T02:28:14.116Z,7.25
2023-02-19T02:30:44.942Z,7.20
2023-02-19T02:33:21.507Z,7.16
2023-02-19T02:36:27.839Z,7.12
2023-02-19T02:38:56.925Z,7.14
2023-02-19T02:41:25.216Z,7.18
2023-02-19T02:43:52.878Z,7.22
2023-02-19T02:46:28.652Z,7.15
2023-02-19T02:49:00.052Z,7.02
2023-02-19T02:51:31.186Z,6.98
2023-02-19T02:54:27.489Z,6.89
2023-02-19T02:56:56.244Z,6.80
2023-02-19T02:59:26.565Z,6.68
2023-02-19T03:02:22.738Z,6.64
2023-02-19T03:05:38.329Z,6.64
2023-02-19T03:08:23.135Z,6.59
2023-02-19T03:11:22.522Z,6.50
2023-02-19T03:14:16.395Z,6.54
2023-02-19T03:17:04.532Z,6.59
2023-02-19T03:19:38.279Z,6.67
2023-02-19T03:22:11.644Z,6.71
2023-02-19T03:25:04.591Z,6.71
2023-02-19T03:27:33.843Z,6.79
2023-02-19T03:30:05.581Z,6.86
2023-02-19T03:32:37.477Z,6.94
2023-02-19T03:35:22.952Z,7.05
2023-02-19T03:38:04.512Z,7.18
2023-02-19T03:40:40.645Z,7.18
2023-02-19T03:43:32.588Z,7.20
2023-02-19T03:46:12.514Z,7.22
2023-02-19T03:48:52.371Z,7.11
2023-02-19T03:51:26.189Z,7.05
2023-02-19T03:54:16.453Z,7.08
2023-02-19T03:56:56.413Z,6.99
2023-02-19T03:59:48.832Z,6.87
2023-02-19T04:02:27.451Z,6.74
2023-02-19T04:05:02.290Z,6.76
2023-02-19T04:07:36.159Z,6.76
2023-02-19T04:10:04.692Z,6.78
2023-02-19T04:12:33.840Z,6.76
2023-02-19T04:15:10.558Z,6.76
2023-02-19T04:17:42.686Z,6.76
2023-02-19T04:20:11.393Z,6.73
2023-02-19T04:22:39.380Z,6.72
2023-02-19T04:25:07.870Z,6.75
2023-02-19T04:27:39.385Z,6.75
2023-02-19T04:30:09.271Z,6.73
2023-02-19T04:32:37.142Z,6.72
2023-02-19T04:35:05.070Z,6.69
2023-02-19T04:37:32.809Z,6.73
2023-02-19T04:40:00.488Z,6.77
2023-02-19T04:42:28.136Z,6.77
2023-02-19T04:44:55.830Z,6.83
2023-02-19T04:47:23.689Z,6.90
2023-02-19T04:49:51.398Z,6.97
2023-02-19T04:52:19.113Z,7.04
2023-02-19T04:54:46.887Z,7.03
2023-02-19T04:57:14.598Z,7.02
2023-02-19T04:59:42.319Z,7.05
2023-02-19T05:02:09.992Z,7.08
2023-02-19T05:04:37.633Z,7.12
2023-02-19T05:07:05.356Z,7.17
2023-02-19T05:09:33.021Z,7.24
2023-02-19T05:12:00.669Z,7.13
2023-02-19T05:14:28.373Z,7.11
2023-02-19T05:16:56.153Z,7.10
2023-02-19T05:19:24.008Z,7.10
2023-02-19T05:21:51.638Z,7.05
2023-02-19T05:24:19.320Z,7.04
2023-02-19T05:26:48.337Z,7.00
2023-02-19T05:29:16.175Z,6.95
2023-02-19T05:31:43.929Z,6.93
2023-02-19T05:34:11.649Z,6.96
2023-02-19T05:36:39.418Z,7.02
2023-02-19T05:39:08.470Z,7.07
2023-02-19T05:41:36.225Z,7.09
2023-02-19T05:44:03.880Z,7.16
2023-02-19T05:46:32.000Z,7.26
2023-02-19T05:48:59.762Z,7.30
2023-02-19T05:51:27.607Z,7.38
2023-02-19T05:53:56.630Z,7.42
2023-02-19T05:56:38.818Z,7.43
2023-02-19T05:59:14.037Z,7.39
2023-02-19T06:01:41.699Z,7.42
2023-02-19T06:04:10.907Z,7.45
2023-02-19T06:06:39.265Z,7.40
2023-02-19T06:09:07.718Z,7.30
2023-02-19T06:11:35.797Z,7.20
2023-02-19T06:14:04.172Z,7.03
2023-02-19T06:16:33.744Z,6.87
2023-02-19T06:19:04.874Z,6.79
2023-02-19T06:21:32.574Z,6.72
2023-02-19T06:24:05.629Z,6.74
2023-02-19T06:26:33.281Z,6.78
2023-02-19T06:29:01.010Z,6.83
2023-02-19T06:31:29.059Z,6.90
2023-02-19T06:33:56.888Z,6.83
2023-02-19T06:36:24.836Z,6.71
2023-02-19T06:38:52.576Z,6.61
2023-02-19T06:41:20.364Z,6.51
2023-02-19T06:43:48.084Z,6.50
2023-02-19T06:46:15.872Z,6.45
2023-02-19T06:48:45.125Z,6.39
2023-02-19T06:51:14.975Z,6.32
2023-02-19T06:53:42.677Z,6.26
2023-02-19T06:56:28.306Z,6.21
2023-02-19T06:58:59.569Z,6.25
2023-02-19T07:01:28.842Z,6.24
2023-02-19T07:03:56.735Z,6.19
2023-02-19T07:06:25.613Z,6.13
2023-02-19T07:08:54.976Z,6.03
2023-02-19T07:11:23.326Z,5.97
2023-02-19T07:14:01.224Z,5.87
2023-02-19T07:16:29.120Z,5.76
2023-02-19T07:18:58.197Z,5.69
2023-02-19T07:21:26.648Z,5.63
2023-02-19T07:23:54.616Z,5.52
2023-02-19T07:26:22.993Z,5.41
2023-02-19T07:28:51.822Z,5.35
2023-02-19T07:31:20.974Z,5.26
2023-02-19T07:33:49.401Z,5.16
2023-02-19T07:36:18.233Z,5.05
2023-02-19T07:38:46.111Z,5.00
2023-02-19T07:41:14.308Z,4.93
2023-02-19T07:43:42.230Z,4.94
2023-02-19T07:46:12.177Z,4.91
2023-02-19T07:48:41.919Z,4.88
2023-02-19T07:51:19.043Z,4.85
2023-02-19T07:53:48.019Z,4.91
2023-02-19T07:56:16.239Z,4.91
2023-02-19T07:58:45.433Z,4.93
2023-02-19T08:01:42.524Z,4.94
2023-02-19T08:04:12.272Z,4.81
2023-02-19T08:06:40.540Z,4.75
2023-02-19T08:09:08.979Z,4.64
2023-02-19T08:11:55.266Z,4.60
2023-02-19T08:14:27.278Z,4.60
2023-02-19T08:16:55.532Z,4.66
2023-02-19T08:19:23.586Z,4.70
2023-02-19T08:21:51.372Z,4.74
2023-02-19T08:24:19.120Z,4.80
2023-02-19T08:26:47.173Z,4.81
2023-02-19T08:29:14.811Z,4.79
2023-02-19T08:31:42.782Z,4.80
2023-02-19T08:34:10.735Z,4.80
2023-02-19T08:36:38.489Z,4.83
2023-02-19T08:39:06.697Z,4.98
2023-02-19T08:41:34.323Z,5.07
2023-02-19T08:44:01.960Z,5.13
2023-02-19T08:46:29.657Z,5.13
2023-02-19T08:48:57.370Z,5.06
2023-02-19T08:51:25.001Z,5.07
2023-02-19T08:53:52.687Z,5.10
2023-02-19T08:56:20.332Z,5.12
2023-02-19T08:58:48.039Z,5.16
2023-02-19T14:02:35.818Z,6.96
2023-02-19T14:05:07.894Z,6.73
2023-02-19T14:07:49.670Z,6.87
2023-02-19T14:10:53.863Z,7.31
2023-02-19T14:14:06.469Z,7.15
2023-02-19T14:16:39.883Z,7.24
2023-02-19T14:19:14.992Z,7.44
2023-02-19T14:21:43.894Z,7.32
2023-02-19T14:24:13.738Z,7.15
2023-02-19T14:26:41.767Z,7.01
2023-02-19T14:29:12.257Z,6.85
2023-02-19T14:31:41.030Z,6.65
2023-02-19T14:34:22.867Z,6.55
2023-02-19T14:36:53.996Z,6.42
2023-02-19T14:39:26.356Z,6.45
2023-02-19T14:41:57.522Z,6.54
2023-02-19T14:44:29.318Z,6.46
2023-02-19T14:47:05.223Z,6.33
2023-02-19T14:49:43.144Z,7.41
2023-02-19T14:52:37.124Z,9.13
2023-02-19T14:55:13.270Z,10.60
2023-02-19T14:57:46.040Z,11.53
2023-02-19T15:00:31.194Z,11.53
2023-02-19T15:03:00.016Z,11.43
2023-02-19T15:05:30.939Z,12.41
2023-02-19T15:08:02.440Z,13.58
2023-02-19T15:10:31.791Z,14.42
2023-02-19T15:13:04.592Z,15.29
2023-02-19T15:15:41.026Z,15.69
2023-02-19T15:18:18.092Z,15.55
2023-02-19T15:20:46.334Z,15.65
2023-02-19T15:23:21.877Z,15.76
2023-02-19T15:25:49.957Z,15.80
2023-02-19T15:28:24.482Z,14.84
2023-02-19T15:30:59.630Z,14.33
2023-02-19T15:33:27.900Z,14.49
2023-02-19T16:26:28.881Z,6.80
2023-02-19T16:32:59.046Z,6.21
2023-02-19T16:36:50.581Z,6.07
2023-02-19T16:39:32.170Z,5.96
2023-02-19T16:42:19.003Z,5.91
2023-02-19T16:45:50.981Z,5.84
2023-02-19T16:49:01.190Z,5.69
2023-02-19T16:55:20.212Z,5.51
2023-02-19T17:12:32.324Z,5.90
2023-02-19T17:26:26.838Z,5.24
2023-02-19T18:32:37.814Z,4.89
2023-02-19T19:31:16.381Z,4.30
2023-02-19T19:33:55.634Z,4.11
2023-02-19T19:36:23.396Z,3.88
2023-02-19T19:38:51.254Z,3.69
2023-02-19T19:41:19.911Z,3.55
2023-02-19T19:43:47.807Z,3.48
2023-02-19T19:46:19.103Z,3.42
2023-02-19T19:48:48.420Z,3.38
2023-02-19T19:51:17.149Z,3.33
2023-02-19T19:53:51.998Z,3.31
2023-02-19T19:56:19.758Z,3.26
2023-02-19T19:58:48.333Z,3.22
2023-02-19T20:01:20.815Z,3.16
2023-02-19T20:03:48.915Z,3.12
2023-02-19T20:06:27.045Z,3.10
2023-02-19T20:08:55.181Z,3.09
2023-02-19T20:11:23.585Z,3.12
2023-02-19T20:13:51.231Z,3.13
2023-02-19T20:16:24.525Z,3.03
2023-02-19T20:18:52.344Z,2.91
2023-02-19T20:21:20.239Z,2.83
2023-02-19T20:23:47.950Z,2.77
2023-02-19T20:26:25.749Z,2.73
2023-02-19T20:28:53.941Z,2.71
2023-02-19T20:31:22.348Z,2.65
2023-02-19T20:33:51.196Z,2.62
2023-02-19T20:36:20.182Z,2.64
2023-02-19T20:38:49.988Z,2.67
2023-02-19T20:41:17.717Z,2.69
2023-02-19T20:43:45.438Z,2.69
2023-02-19T20:46:13.485Z,2.63
2023-02-19T20:48:41.555Z,2.57
2023-02-19T20:51:09.238Z,2.50
2023-02-19T20:53:38.799Z,2.47
2023-02-19T20:56:06.855Z,2.48
2023-02-19T20:58:34.484Z,2.49
2023-02-19T21:01:02.154Z,2.50
2023-02-19T21:03:30.150Z,2.48
2023-02-19T21:05:58.110Z,2.44
2023-02-19T21:08:25.902Z,2.43
2023-02-19T21:10:56.629Z,2.38
2023-02-19T21:13:25.608Z,2.32
2023-02-19T21:15:53.531Z,2.23
2023-02-19T21:18:21.273Z,2.27
2023-02-19T21:20:50.249Z,2.31
2023-02-19T21:23:18.588Z,2.44
2023-02-19T21:25:46.352Z,2.49
2023-02-19T21:28:14.021Z,2.52
2023-02-19T21:30:41.831Z,2.53
2023-02-19T21:33:10.281Z,2.56
2023-02-19T21:35:38.612Z,2.54
2023-02-19T21:41:11.647Z,2.51
2023-02-19T21:43:39.348Z,2.46
2023-02-19T21:46:07.397Z,2.40
2023-02-19T21:48:35.139Z,2.34
2023-02-19T21:51:03.805Z,2.26
2023-02-19T21:53:31.459Z,2.21
2023-02-19T21:55:59.486Z,2.21
2023-02-19T21:58:27.150Z,2.23
2023-02-19T22:00:56.306Z,2.26
2023-02-19T22:03:24.727Z,2.31
2023-02-19T22:05:52.880Z,2.36
2023-02-19T22:08:21.282Z,2.39
2023-02-19T22:10:48.947Z,2.41
2023-02-19T22:13:16.644Z,2.42
2023-02-19T22:15:44.381Z,2.41
2023-02-19T22:18:12.267Z,2.41
2023-02-19T22:20:39.947Z,2.38
2023-02-19T22:23:07.729Z,2.34
2023-02-19T22:25:35.407Z,2.30
2023-02-19T22:28:04.764Z,2.25
2023-02-19T22:30:32.435Z,2.21
2023-02-19T22:33:00.238Z,2.21
2023-02-19T22:35:28.113Z,2.21
2023-02-19T22:37:55.775Z,2.17
2023-02-19T22:40:23.488Z,2.14
2023-02-19T22:42:51.281Z,2.14
2023-02-19T22:45:19.022Z,2.17
2023-02-19T22:47:47.096Z,2.21
2023-02-19T22:50:19.588Z,2.22
2023-02-19T22:52:47.267Z,2.28
2023-02-19T22:55:16.228Z,2.32
2023-02-19T22:57:43.872Z,2.35
2023-02-19T23:00:18.886Z,2.40
2023-02-19T23:02:48.283Z,2.39
2023-02-19T23:05:16.735Z,2.38
2023-02-19T23:07:45.341Z,2.38
2023-02-19T23:10:13.400Z,2.38
2023-02-19T23:12:41.502Z,2.36
2023-02-19T23:15:10.271Z,2.39
2023-02-19T23:17:37.921Z,2.41
2023-02-19T23:20:06.417Z,2.43
2023-02-19T23:22:35.155Z,2.44
2023-02-19T23:25:03.513Z,2.46
2023-02-19T23:27:31.247Z,2.44
2023-02-19T23:29:58.912Z,2.46
2023-02-19T23:32:26.577Z,2.47
2023-02-19T23:34:54.364Z,2.48
2023-02-19T23:37:22.041Z,2.47
2023-02-19T23:39:49.704Z,2.49
2023-02-19T23:42:17.397Z,2.49
2023-02-19T23:44:48.743Z,2.50
2023-02-19T23:47:16.558Z,2.50
2023-02-19T23:49:44.237Z,2.54
2023-02-19T23:52:12.008Z,2.62
2023-02-19T23:54:39.752Z,2.64
2023-02-19T23:57:07.463Z,2.58
2023-02-19T23:59:35.102Z,2.52
